Terminal Aerodrome Forecast
Issued by NWS

Home | Current Version | Previous Version | Text Only | Print | Product List | Glossary On
Versions: 1 2 3 4 5 6 7 8 9 10 11 12 13 14 15 16 17
000
FTUS42 KTBW 220520
TAFLAL
TAF
KLAL 220520Z 2206/2306 VRB03KT P6SM SCT025 SCT100
     FM221000 VRB04KT P6SM VCSH SCT025 SCT100
     FM221500 19005KT P6SM VCTS SCT030CB BKN050 BKN150
     FM222000 21006KT P6SM VCTS BKN045CB BKN150
     FM230100 17004KT P6SM FEW030 SCT100 BKN200
      AMD NOT SKED TIL 221100=

USA.gov is the U.S. government's official web portal to all federal, state and local government web resources and services.